Time;durP1;ratioP1;P1;durP2;ratioP2;P2;SDS_P1;SDS_P2;PMS_P1;PMS_P2;Temp;Humidity;BMP_temperature;BMP_pressure;BME280_temperature;BME280_humidity;BME280_pressure;Samples;Min_cycle;Max_cycle;Signal;HPM_P1;HPM_P2
2021/10/01 00:02:14;;;;;;;;;2.00;2.00;;;;;20.01;41.34;101806.25;5060441;28;45449;-44
2021/10/01 00:04:40;;;;;;;;;2.00;1.67;;;;;20.01;41.41;101793.78;5060214;28;47101;-43
2021/10/01 00:07:06;;;;;;;;;4.00;2.00;;;;;20.01;41.16;101796.47;5060260;28;45268;-56
2021/10/01 00:09:31;;;;;;;;;2.00;2.00;;;;;20.00;41.24;101789.38;5060322;28;45224;-49
2021/10/01 00:11:57;;;;;;;;;4.00;3.67;;;;;20.01;41.33;101793.78;5060416;28;45557;-44
2021/10/01 00:14:25;;;;;;;;;3.00;2.33;;;;;20.00;41.18;101792.03;5059924;28;47359;-43
2021/10/01 00:16:52;;;;;;;;;4.00;3.00;;;;;20.01;41.32;101784.91;5060091;28;45236;-62
2021/10/01 00:19:18;;;;;;;;;5.00;2.00;;;;;20.01;41.22;101779.56;5060193;28;45249;-59
2021/10/01 00:21:43;;;;;;;;;5.00;2.00;;;;;20.01;41.08;101779.56;5060081;28;45388;-43
2021/10/01 00:24:09;;;;;;;;;2.00;2.00;;;;;20.02;41.24;101776.00;5059920;28;46436;-50
2021/10/01 00:26:36;;;;;;;;;1.00;1.00;;;;;20.01;41.23;101780.44;5060070;28;45318;-47
2021/10/01 00:29:03;;;;;;;;;2.00;2.00;;;;;20.00;40.96;101777.81;5060123;28;45316;-47
2021/10/01 00:31:28;;;;;;;;;2.00;2.00;;;;;19.99;41.03;101766.22;5059718;28;45709;-48
2021/10/01 00:33:54;;;;;;;;;3.33;2.00;;;;;20.00;41.04;101773.34;5059638;28;47115;-43
2021/10/01 00:36:19;;;;;;;;;3.00;2.00;;;;;20.00;40.94;101773.34;5059775;28;45283;-43
2021/10/01 00:38:44;;;;;;;;;2.00;2.00;;;;;20.00;40.84;101777.81;5059953;28;45452;-50
2021/10/01 00:41:10;;;;;;;;;1.33;1.33;;;;;20.00;41.04;101773.34;5059926;28;45535;-42
2021/10/01 00:43:35;;;;;;;;;2.00;2.00;;;;;19.99;41.03;101776.91;5059280;28;46258;-56
2021/10/01 00:46:00;;;;;;;;;1.00;1.00;;;;;19.99;40.93;101771.56;5059392;28;45444;-58
2021/10/01 00:48:26;;;;;;;;;3.33;1.67;;;;;20.01;40.96;101776.88;5059639;28;45290;-55
2021/10/01 00:50:51;;;;;;;;;2.67;2.67;;;;;20.00;40.77;101778.69;5060368;28;45295;-45
2021/10/01 00:53:17;;;;;;;;;2.67;1.67;;;;;20.00;40.84;101777.81;5059415;28;46278;-57
2021/10/01 00:55:42;;;;;;;;;2.00;2.00;;;;;20.00;40.66;101772.47;5059530;28;45196;-56
2021/10/01 00:58:08;;;;;;;;;2.00;2.00;;;;;19.99;40.75;101771.56;5059446;28;45267;-43
2021/10/01 01:00:34;;;;;;;;;2.00;2.00;;;;;20.00;40.73;101764.47;5058940;28;45466;-44
2021/10/01 01:03:03;;;;;;;;;2.00;2.00;;;;;19.99;40.96;101760.91;5059183;28;46925;-53
2021/10/01 01:05:44;;;;;;;;;1.00;1.00;;;;;20.00;40.82;101756.44;5059227;28;45284;-55
2021/10/01 01:08:10;;;;;;;;;2.00;2.00;;;;;19.99;40.70;101758.22;5059453;28;45514;-43
2021/10/01 01:10:48;;;;;;;;;3.33;2.00;;;;;19.98;40.46;101753.78;5059400;28;45419;-63
2021/10/01 01:13:46;;;;;;;;;2.00;2.00;;;;;20.00;40.56;101752.00;5059006;28;47176;-52
2021/10/01 01:16:17;;;;;;;;;1.67;1.67;;;;;19.99;40.74;101739.53;5016740;28;45413;-44
2021/10/01 01:18:49;;;;;;;;;2.00;2.00;;;;;19.98;40.54;101737.78;5017091;28;45479;-45
2021/10/01 01:21:27;;;;;;;;;1.33;1.00;;;;;19.99;40.49;101739.53;5017176;28;45429;-46
2021/10/01 01:24:10;;;;;;;;;2.00;1.00;;;;;19.99;40.61;101734.22;5016515;28;46192;-45
2021/10/01 01:27:03;;;;;;;;;4.00;2.00;;;;;19.99;40.60;101738.66;5016888;28;45375;-47
2021/10/01 01:29:42;;;;;;;;;2.00;2.00;;;;;19.98;40.62;101732.44;5016869;28;45317;-43
2021/10/01 01:32:15;;;;;;;;;3.00;1.00;;;;;19.99;40.63;101731.53;5016435;28;45333;-43
2021/10/01 01:34:48;;;;;;;;;1.00;1.00;;;;;19.98;40.58;101724.44;5016142;28;46193;-46
2021/10/01 01:37:22;;;;;;;;;2.33;1.00;;;;;19.98;40.52;101721.78;5016636;28;45269;-49
2021/10/01 01:39:49;;;;;;;;;1.67;1.67;;;;;19.98;40.68;101727.13;5016645;28;45336;-60
2021/10/01 01:42:15;;;;;;;;;2.33;2.00;;;;;19.99;40.67;101720.88;5016739;28;45487;-47
2021/10/01 01:44:42;;;;;;;;;1.00;1.00;;;;;19.98;40.79;101721.78;5016260;28;46316;-50
2021/10/01 01:47:08;;;;;;;;;2.00;2.00;;;;;19.99;40.48;101717.31;5016396;28;45337;-43
2021/10/01 01:49:34;;;;;;;;;1.00;1.00;;;;;19.99;40.66;101709.28;5016326;28;45325;-55
2021/10/01 01:52:02;;;;;;;;;1.00;1.00;;;;;19.99;40.79;101701.28;5028088;28;45494;-65
2021/10/01 01:54:30;;;;;;;;;3.00;1.00;;;;;19.99;40.59;101701.28;5058332;28;47029;-51
2021/10/01 01:56:57;;;;;;;;;1.67;1.67;;;;;19.98;40.62;101697.75;5058400;28;45283;-44
2021/10/01 01:59:25;;;;;;;;;1.00;1.00;;;;;19.98;40.75;101687.09;5058469;28;45268;-43
2021/10/01 02:01:51;;;;;;;;;2.00;2.00;;;;;19.99;40.65;101685.28;5058488;28;45431;-53
2021/10/01 02:04:19;;;;;;;;;1.00;0.00;;;;;19.98;40.59;101683.53;5058357;28;46254;-54
2021/10/01 02:06:46;;;;;;;;;1.00;1.00;;;;;19.99;40.79;101679.94;5058469;28;45224;-45
2021/10/01 02:09:12;;;;;;;;;3.00;2.00;;;;;19.98;40.36;101681.75;5058432;28;45414;-45
2021/10/01 02:11:40;;;;;;;;;1.67;1.33;;;;;19.97;40.67;101679.97;5057467;28;45363;-56
2021/10/01 02:14:06;;;;;;;;;4.00;3.00;;;;;19.98;40.27;101671.06;5058074;28;46440;-48
2021/10/01 02:16:33;;;;;;;;;2.67;1.00;;;;;19.98;40.48;101668.41;5057856;28;45229;-54
2021/10/01 02:19:01;;;;;;;;;1.67;1.33;;;;;19.97;40.36;101671.94;5058564;28;45390;-52
2021/10/01 02:21:30;;;;;;;;;2.33;2.00;;;;;19.98;40.67;101664.84;5058233;28;45382;-44
2021/10/01 02:23:55;;;;;;;;;1.33;1.00;;;;;19.98;40.30;101662.16;5058031;28;47135;-49
2021/10/01 02:26:36;;;;;;;;;4.67;3.00;;;;;19.98;40.59;101660.41;5058071;28;45267;-56
2021/10/01 02:29:25;;;;;;;;;1.00;1.00;;;;;19.98;40.30;101660.41;5058312;28;45173;-48
2021/10/01 02:32:10;;;;;;;;;2.00;0.00;;;;;19.99;40.33;101664.81;5057850;28;45521;-43
2021/10/01 02:34:43;;;;;;;;;2.00;2.00;;;;;19.98;40.45;101651.50;5057717;28;46446;-48
2021/10/01 02:37:09;;;;;;;;;3.00;1.33;;;;;19.98;40.50;101648.81;5057945;28;45329;-45
2021/10/01 02:39:37;;;;;;;;;2.00;2.00;;;;;19.98;40.49;101641.72;5057927;28;45406;-43
2021/10/01 02:42:03;;;;;;;;;1.00;1.00;;;;;19.97;40.47;101636.38;5058035;28;45199;-44
2021/10/01 02:44:29;;;;;;;;;0.67;0.67;;;;;19.98;40.44;101638.16;5057734;28;46340;-46
2021/10/01 02:46:54;;;;;;;;;1.00;1.00;;;;;19.97;40.34;101629.25;5057831;28;45346;-44
2021/10/01 02:49:20;;;;;;;;;2.00;0.67;;;;;19.97;40.27;101631.94;5057856;28;45173;-55
2021/10/01 02:51:50;;;;;;;;;3.00;1.00;;;;;19.97;40.44;101623.91;5058292;28;45210;-46
2021/10/01 02:54:21;;;;;;;;;1.00;1.00;;;;;19.96;40.53;101624.84;5057228;28;45361;-46
2021/10/01 02:56:57;;;;;;;;;1.00;1.00;;;;;19.96;40.31;101623.94;5057678;28;45501;-48
2021/10/01 02:59:28;;;;;;;;;1.00;1.00;;;;;19.97;40.53;101618.59;5057640;28;45366;-44
2021/10/01 03:01:55;;;;;;;;;1.00;1.00;;;;;19.97;40.48;101617.69;5057918;28;45401;-54
2021/10/01 03:04:24;;;;;;;;;2.00;2.00;;;;;19.96;40.23;101616.81;5057503;28;47038;-43
2021/10/01 03:06:51;;;;;;;;;2.00;1.00;;;;;19.96;40.27;101606.16;5057413;28;45308;-46
2021/10/01 03:09:20;;;;;;;;;1.00;1.00;;;;;19.96;40.33;101600.81;5057600;28;45303;-47
2021/10/01 03:11:47;;;;;;;;;1.00;1.00;;;;;19.96;40.45;101602.59;5057927;28;45416;-49
2021/10/01 03:14:15;;;;;;;;;2.00;1.33;;;;;19.96;40.32;101603.50;5057474;28;45369;-47
2021/10/01 03:16:42;;;;;;;;;1.00;1.00;;;;;19.96;40.36;101600.81;5057344;28;45310;-55
2021/10/01 03:19:08;;;;;;;;;3.00;1.00;;;;;19.96;40.25;101603.50;5057530;28;45259;-49
2021/10/01 03:21:34;;;;;;;;;0.00;0.00;;;;;19.96;40.33;101597.25;5057497;28;45240;-59
2021/10/01 03:24:03;;;;;;;;;2.00;0.67;;;;;19.95;40.20;101596.38;5060574;28;47467;-48
2021/10/01 03:26:29;;;;;;;;;1.00;1.00;;;;;19.96;40.46;101594.59;5061047;28;45314;-51
2021/10/01 03:28:55;;;;;;;;;1.00;1.00;;;;;19.95;40.47;101591.03;5060913;28;45399;-43
2021/10/01 03:31:24;;;;;;;;;3.00;1.33;;;;;19.95;40.50;101595.47;5061099;28;46132;-50
2021/10/01 03:33:49;;;;;;;;;1.67;1.67;;;;;19.94;40.37;101586.59;5060766;28;46303;-55
2021/10/01 03:36:15;;;;;;;;;0.67;0.67;;;;;19.95;40.41;101593.69;5060539;28;45364;-47
2021/10/01 03:38:40;;;;;;;;;0.33;0.33;;;;;19.95;40.06;101587.47;5060774;28;45449;-56
2021/10/01 03:41:06;;;;;;;;;1.00;1.00;;;;;19.95;40.45;101591.03;5061041;28;45276;-52
2021/10/01 03:43:31;;;;;;;;;1.00;1.00;;;;;19.95;40.49;101593.69;5060749;28;47268;-43
2021/10/01 03:46:00;;;;;;;;;0.67;0.67;;;;;19.94;40.29;101583.03;5060734;28;45480;-46
2021/10/01 03:48:26;;;;;;;;;1.00;1.00;;;;;19.95;40.37;101588.34;5060761;28;45413;-51
2021/10/01 03:50:52;;;;;;;;;2.00;1.00;;;;;19.94;40.20;101583.94;5060669;28;45343;-51
2021/10/01 03:53:18;;;;;;;;;1.00;1.00;;;;;19.94;40.42;101580.38;5060330;28;47016;-44
2021/10/01 03:55:43;;;;;;;;;3.00;1.00;;;;;19.94;40.20;101575.94;5060241;28;45231;-46
2021/10/01 03:58:09;;;;;;;;;1.00;1.00;;;;;19.94;40.37;101578.59;5060629;28;45381;-43
2021/10/01 04:00:34;;;;;;;;;1.00;1.00;;;;;19.94;40.35;101575.94;5060637;28;45358;-45
2021/10/01 04:03:00;;;;;;;;;1.00;1.00;;;;;19.94;40.38;101570.59;5060328;28;46936;-46
2021/10/01 04:05:25;;;;;;;;;2.00;2.00;;;;;19.93;40.30;101563.47;5060276;28;45162;-45
2021/10/01 04:07:50;;;;;;;;;1.00;1.00;;;;;19.93;40.16;101562.56;5060197;28;45275;-52
2021/10/01 04:10:16;;;;;;;;;1.00;1.00;;;;;19.92;40.35;101556.38;5060557;28;45426;-50
2021/10/01 04:12:42;;;;;;;;;1.00;1.00;;;;;19.93;40.31;101549.22;5060277;28;47103;-55
2021/10/01 04:15:08;;;;;;;;;1.33;1.33;;;;;19.93;40.17;101542.13;5060085;28;45453;-50
2021/10/01 04:17:33;;;;;;;;;1.33;1.00;;;;;19.92;40.37;101545.72;5060273;28;45322;-49
2021/10/01 04:19:59;;;;;;;;;1.00;1.00;;;;;19.93;40.25;101546.56;5060448;28;45385;-45
2021/10/01 04:22:25;;;;;;;;;1.00;1.00;;;;;19.91;40.36;101551.94;5059733;28;47049;-48
2021/10/01 04:24:51;;;;;;;;;1.00;1.00;;;;;19.91;40.45;101554.59;5059987;28;45351;-44
2021/10/01 04:27:16;;;;;;;;;1.33;1.33;;;;;19.90;40.24;101559.03;5060224;28;45318;-44
2021/10/01 04:29:43;;;;;;;;;1.00;1.00;;;;;19.92;40.00;101555.50;5060162;28;45308;-62
2021/10/01 04:32:09;;;;;;;;;1.67;1.00;;;;;19.91;40.47;101551.94;5059389;28;47078;-48
2021/10/01 04:35:20;;;;;;;;;0.00;0.00;;;;;19.90;40.39;101550.16;5058772;28;45461;-45
2021/10/01 04:37:21;;;;;;;;;2.00;1.67;;;;;19.89;40.23;101546.59;5059361;28;45270;-45
2021/10/01 04:39:46;;;;;;;;;1.67;1.67;;;;;19.89;40.15;101551.06;5059824;28;45295;-43
2021/10/01 04:42:12;;;;;;;;;2.00;1.00;;;;;19.89;40.42;101557.28;5059751;28;46996;-51
2021/10/01 04:44:37;;;;;;;;;2.00;2.00;;;;;19.90;40.30;101555.50;5059862;28;45331;-48
2021/10/01 04:47:03;;;;;;;;;2.00;2.00;;;;;19.89;40.18;101556.38;5059783;28;45339;-62
2021/10/01 04:49:28;;;;;;;;;1.33;1.00;;;;;19.90;40.14;101550.16;5059927;28;45439;-45
2021/10/01 04:51:54;;;;;;;;;1.00;1.00;;;;;19.89;40.21;101545.72;5059305;28;46274;-48
2021/10/01 04:54:19;;;;;;;;;1.00;1.00;;;;;19.89;40.19;101543.06;5059723;28;45240;-55
2021/10/01 04:56:44;;;;;;;;;1.00;1.00;;;;;19.89;40.43;101543.06;5059853;28;45745;-49
2021/10/01 04:59:10;;;;;;;;;1.67;1.67;;;;;19.88;40.24;101539.50;5059875;28;45293;-58
2021/10/01 05:01:35;;;;;;;;;2.33;1.00;;;;;19.88;40.19;101547.50;5059307;28;46998;-62
2021/10/01 05:04:00;;;;;;;;;2.33;1.33;;;;;19.88;40.27;101559.97;5059583;28;45366;-44
2021/10/01 05:06:26;;;;;;;;;2.00;1.00;;;;;19.88;40.47;101557.31;5059444;28;45356;-54
2021/10/01 05:08:51;;;;;;;;;1.67;1.00;;;;;19.87;40.34;101551.06;5059773;28;45317;-66
2021/10/01 05:11:17;;;;;;;;;2.00;2.00;;;;;19.87;40.08;101544.84;5059339;28;47095;-66
2021/10/01 05:13:42;;;;;;;;;1.00;1.00;;;;;19.87;40.44;101542.19;5059328;28;45195;-43
2021/10/01 05:16:07;;;;;;;;;3.33;1.00;;;;;19.87;40.44;101548.41;5059399;28;45356;-60
2021/10/01 05:18:33;;;;;;;;;1.00;1.00;;;;;19.87;40.36;101542.19;5059460;28;45339;-65
2021/10/01 05:21:02;;;;;;;;;1.00;1.00;;;;;19.86;40.37;101540.44;5058977;28;47148;-44
2021/10/01 05:23:29;;;;;;;;;2.00;2.00;;;;;19.86;40.29;101537.75;5058839;28;45437;-47
2021/10/01 05:25:54;;;;;;;;;2.33;1.00;;;;;19.85;41.99;101544.88;5059149;28;45416;-59
2021/10/01 05:28:20;;;;;;;;;2.00;0.33;;;;;19.87;42.54;101547.50;5059081;28;45437;-57
2021/10/01 05:30:45;;;;;;;;;1.00;1.00;;;;;19.87;42.32;101545.75;5058454;28;47236;-48
2021/10/01 05:33:13;;;;;;;;;1.00;1.00;;;;;19.88;42.53;101543.97;5058425;28;45377;-60
2021/10/01 05:35:41;;;;;;;;;1.00;1.00;;;;;19.89;42.00;101545.72;5058804;28;45197;-48
2021/10/01 05:38:06;;;;;;;;;1.33;1.33;;;;;19.88;41.99;101543.97;5058897;28;46016;-44
2021/10/01 05:40:31;;;;;;;;;1.00;1.00;;;;;19.89;42.41;101543.06;5057403;28;48013;-53
2021/10/01 05:42:57;;;;;;;;;1.00;1.00;;;;;19.88;42.01;101543.97;5058556;28;45494;-44
2021/10/01 05:45:22;;;;;;;;;0.33;0.33;;;;;19.88;41.71;101527.97;5058027;28;45412;-45
2021/10/01 05:47:48;;;;;;;;;2.67;2.00;;;;;19.88;41.63;101533.28;5058925;28;45538;-43
2021/10/01 05:50:14;;;;;;;;;1.67;1.67;;;;;19.87;41.97;101523.50;5058311;28;45279;-47
2021/10/01 05:55:08;;;;;;;;;1.00;1.00;;;;;19.88;41.55;101519.94;5058422;28;45209;-58
2021/10/01 05:57:34;;;;;;;;;1.00;1.00;;;;;19.87;41.66;101523.50;5058675;28;45519;-47
2021/10/01 06:00:00;;;;;;;;;2.67;2.00;;;;;19.86;41.58;101514.59;5058419;28;45299;-55
2021/10/01 06:02:27;;;;;;;;;2.00;2.00;;;;;19.86;41.57;101519.09;5058416;28;45259;-42
2021/10/01 06:04:52;;;;;;;;;1.00;1.00;;;;;19.86;41.56;101524.41;5058690;28;45334;-59
2021/10/01 06:07:19;;;;;;;;;1.00;1.00;;;;;19.85;41.58;101523.53;5058184;28;45503;-52
2021/10/01 06:09:45;;;;;;;;;1.67;1.00;;;;;19.86;41.34;101516.41;5058193;28;46238;-47
2021/10/01 06:12:12;;;;;;;;;1.00;1.00;;;;;19.85;41.45;101518.19;5058082;28;45424;-57
2021/10/01 06:14:38;;;;;;;;;1.00;1.00;;;;;19.84;41.38;101519.06;5058420;28;45211;-50
2021/10/01 06:17:05;;;;;;;;;2.00;1.67;;;;;19.85;41.21;101525.31;5058255;28;45514;-51
2021/10/01 06:19:33;;;;;;;;;1.00;1.00;;;;;19.84;41.43;101521.75;5057933;28;46354;-52
2021/10/01 06:21:59;;;;;;;;;1.00;1.00;;;;;19.84;41.34;101523.53;5056308;28;45483;-59
2021/10/01 06:24:24;;;;;;;;;1.00;1.00;;;;;19.84;41.30;101515.53;5058163;28;45329;-59
2021/10/01 06:26:50;;;;;;;;;2.67;2.00;;;;;19.83;41.19;101509.31;5058155;28;45447;-51
2021/10/01 06:29:16;;;;;;;;;3.00;2.00;;;;;19.83;41.22;101508.41;5057787;28;46160;-60
2021/10/01 06:31:42;;;;;;;;;1.67;1.67;;;;;19.83;41.31;101508.41;5057464;28;45325;-54
2021/10/01 06:34:08;;;;;;;;;2.67;1.67;;;;;19.83;41.13;101509.31;5057953;28;45332;-51
2021/10/01 06:36:34;;;;;;;;;1.33;1.33;;;;;19.83;41.04;101511.09;5058013;28;45197;-52
2021/10/01 06:38:59;;;;;;;;;2.00;2.00;;;;;19.83;41.23;101516.44;5057509;28;47162;-55
2021/10/01 06:41:24;;;;;;;;;1.33;1.33;;;;;19.83;41.15;101511.09;5057835;28;45226;-65
2021/10/01 06:43:57;;;;;;;;;2.33;2.00;;;;;19.83;41.09;101508.41;5057809;28;45362;-52
2021/10/01 07:35:55;;;;;;;;;4.00;3.00;;;;;19.79;41.92;101511.13;5056832;28;45407;-58
2021/10/01 08:19:22;;;;;;;;;3.67;2.33;;;;;19.76;41.88;101471.13;5059908;28;45348;-60
2021/10/01 08:21:53;;;;;;;;;2.33;2.00;;;;;19.77;41.69;101467.59;5059940;28;45382;-46
2021/10/01 08:24:19;;;;;;;;;4.67;3.33;;;;;19.77;41.70;101451.56;5060166;28;45400;-56
2021/10/01 08:26:45;;;;;;;;;3.00;3.00;;;;;19.78;41.80;101457.78;5059695;28;46133;-58
2021/10/01 08:29:11;;;;;;;;;4.00;4.00;;;;;19.77;41.77;101456.03;5059960;28;45369;-53
2021/10/01 08:31:37;;;;;;;;;4.00;4.00;;;;;19.77;42.24;101458.69;5059575;28;45482;-50
2021/10/01 08:34:03;;;;;;;;;2.33;2.33;;;;;19.78;41.83;101460.44;5060037;28;45220;-61
2021/10/01 08:36:28;;;;;;;;;4.00;3.00;;;;;19.78;41.80;101463.09;5059341;28;46387;-49
2021/10/01 08:38:53;;;;;;;;;3.67;3.00;;;;;19.77;41.86;101456.03;5059823;28;45239;-50
2021/10/01 08:41:19;;;;;;;;;3.33;3.00;;;;;19.77;41.87;101448.91;5059780;28;45207;-64
2021/10/01 08:43:46;;;;;;;;;7.33;3.00;;;;;19.78;41.87;101442.66;5059776;28;45335;-47
2021/10/01 08:46:12;;;;;;;;;3.67;3.00;;;;;19.79;41.87;101455.13;5059254;28;47269;-53
2021/10/01 08:48:38;;;;;;;;;7.00;4.00;;;;;19.78;42.00;101445.31;5059526;28;45444;-50
2021/10/01 08:51:08;;;;;;;;;5.00;5.00;;;;;19.78;41.98;101445.31;5059603;28;45330;-54
2021/10/01 08:53:35;;;;;;;;;4.00;4.00;;;;;19.77;41.86;101432.91;5059682;28;45222;-56
2021/10/01 08:56:02;;;;;;;;;4.67;3.33;;;;;19.78;41.95;101437.31;5059185;28;47306;-54
2021/10/01 08:58:28;;;;;;;;;6.00;4.00;;;;;19.77;42.18;101432.91;5059215;28;45519;-51
2021/10/01 09:00:56;;;;;;;;;4.33;3.67;;;;;19.78;42.03;101436.44;5059238;28;45328;-55
2021/10/01 09:03:21;;;;;;;;;4.67;4.00;;;;;19.78;42.24;101440.00;5059651;28;45323;-56
2021/10/01 09:05:46;;;;;;;;;6.00;5.67;;;;;19.78;42.23;101434.66;5059031;28;46270;-66
2021/10/01 09:08:15;;;;;;;;;6.00;4.67;;;;;19.77;42.26;101424.91;5059156;28;45259;-55
2021/10/01 09:10:42;;;;;;;;;3.00;2.00;;;;;19.78;42.30;101433.75;5059334;28;45275;-62
2021/10/01 09:13:10;;;;;;;;;5.00;3.67;;;;;19.78;42.33;101432.00;5059276;28;45284;-59
2021/10/01 09:15:42;;;;;;;;;6.33;4.00;;;;;19.77;42.26;101427.56;5058919;28;45330;-55
2021/10/01 09:18:08;;;;;;;;;4.67;4.67;;;;;19.76;42.17;101420.44;5059032;28;45379;-53
2021/10/01 09:20:34;;;;;;;;;6.67;4.00;;;;;19.78;42.16;101426.66;5058416;28;45501;-58
2021/10/01 09:23:20;;;;;;;;;5.00;5.00;;;;;19.78;42.22;101431.09;5059400;28;45318;-55
2021/10/01 09:25:46;;;;;;;;;6.00;4.67;;;;;19.78;42.41;101431.09;5058574;28;46233;-44
2021/10/01 09:28:14;;;;;;;;;4.00;3.00;;;;;19.77;42.21;101419.56;5058544;28;45406;-47
2021/10/01 09:30:48;;;;;;;;;4.33;4.33;;;;;19.77;42.44;101422.22;5058924;28;45330;-55
2021/10/01 09:33:16;;;;;;;;;5.67;5.00;;;;;19.77;42.37;101416.91;5058565;28;45439;-54
2021/10/01 09:35:43;;;;;;;;;4.67;3.67;;;;;19.76;42.49;101420.44;5058403;28;46956;-56
2021/10/01 09:38:12;;;;;;;;;4.67;4.00;;;;;19.76;42.38;101411.56;5058760;28;45367;-62
2021/10/01 09:40:39;;;;;;;;;6.00;4.67;;;;;19.77;42.49;101416.00;5058803;28;45444;-46
2021/10/01 09:43:06;;;;;;;;;5.00;4.67;;;;;19.76;42.64;101412.44;5059094;28;45371;-51
2021/10/01 09:45:32;;;;;;;;;4.67;3.33;;;;;19.75;42.70;101421.38;5058497;28;46877;-45
2021/10/01 09:48:05;;;;;;;;;3.33;3.33;;;;;19.76;42.51;101412.44;5058462;28;45413;-53
2021/10/01 09:50:31;;;;;;;;;4.33;4.00;;;;;19.76;42.74;101422.22;5058437;28;45181;-53
2021/10/01 09:53:03;;;;;;;;;5.00;4.00;;;;;19.75;42.74;101416.03;5058902;28;45402;-44
2021/10/01 09:55:32;;;;;;;;;4.00;3.33;;;;;19.76;42.59;101416.88;5058274;28;45988;-54
2021/10/01 09:58:02;;;;;;;;;3.33;3.33;;;;;19.75;42.85;101420.47;5058448;28;45441;-63
2021/10/01 10:00:55;;;;;;;;;5.00;5.00;;;;;19.74;42.87;101422.25;5058345;28;45413;-53
2021/10/01 10:03:23;;;;;;;;;6.00;5.00;;;;;19.74;43.01;101416.91;5058513;28;45329;-58
2021/10/01 10:05:58;;;;;;;;;4.00;4.00;;;;;19.75;42.80;101423.13;5058195;28;46316;-46
2021/10/01 10:08:27;;;;;;;;;4.00;3.00;;;;;19.74;42.87;101418.69;5058317;28;45324;-61
2021/10/01 10:10:55;;;;;;;;;5.00;3.00;;;;;19.74;42.87;101414.25;5058214;28;45462;-56
2021/10/01 10:13:37;;;;;;;;;3.00;3.00;;;;;19.74;43.06;101411.56;5058322;28;45470;-59
2021/10/01 10:16:17;;;;;;;;;5.67;4.67;;;;;19.75;43.25;101415.13;5058109;28;47224;-52
2021/10/01 10:18:43;;;;;;;;;4.00;3.33;;;;;19.73;43.11;101414.28;5058191;28;45193;-55
2021/10/01 10:21:09;;;;;;;;;4.33;3.33;;;;;19.73;42.88;101407.16;5058342;28;45359;-50
2021/10/01 10:23:35;;;;;;;;;3.00;3.00;;;;;19.74;43.08;101410.69;5058090;28;45172;-60
2021/10/01 10:26:00;;;;;;;;;2.00;2.00;;;;;19.74;43.41;101413.34;5058086;28;47137;-52
2021/10/01 10:28:27;;;;;;;;;5.00;4.00;;;;;19.74;43.20;101413.34;5058215;28;45417;-59
2021/10/01 10:30:55;;;;;;;;;6.00;1.67;;;;;19.73;43.60;101420.50;5058138;28;45319;-51
2021/10/01 10:33:42;;;;;;;;;5.00;3.33;;;;;19.73;43.25;101412.50;5057027;28;45532;-43
2021/10/01 10:36:52;;;;;;;;;2.67;2.67;;;;;19.73;43.33;101412.50;5057636;28;46995;-61
2021/10/01 10:39:32;;;;;;;;;4.67;4.00;;;;;19.72;43.33;101400.03;5056546;28;45328;-60
2021/10/01 10:42:01;;;;;;;;;2.33;2.33;;;;;19.72;43.49;101400.03;5058096;28;45320;-51
2021/10/01 10:44:48;;;;;;;;;2.67;2.67;;;;;19.72;43.45;101389.38;5058032;28;45526;-59
2021/10/01 10:47:38;;;;;;;;;2.67;2.67;;;;;19.73;43.52;101376.94;5057430;28;46351;-58
2021/10/01 10:50:21;;;;;;;;;6.00;3.33;;;;;19.72;43.63;101378.69;5057824;28;45243;-63
2021/10/01 10:53:05;;;;;;;;;2.67;0.00;;;;;19.71;43.69;101366.28;5057764;28;45299;-49
2021/10/01 10:55:59;;;;;;;;;3.33;2.67;;;;;19.72;43.75;101373.38;5057883;28;45539;-56
2021/10/01 10:58:25;;;;;;;;;3.33;2.67;;;;;19.72;43.84;101365.38;5052240;28;46114;-60
2021/10/01 11:01:01;;;;;;;;;2.00;2.00;;;;;19.72;43.82;101384.03;5057704;28;45315;-59
2021/10/01 11:03:29;;;;;;;;;2.00;2.00;;;;;19.71;43.86;101378.72;5057645;28;45389;-63
2021/10/01 11:06:09;;;;;;;;;3.67;3.67;;;;;19.71;43.72;101371.63;5057939;28;45219;-63
2021/10/01 11:08:36;;;;;;;;;3.33;3.33;;;;;19.73;43.99;101368.94;5057397;28;46227;-53
2021/10/01 11:11:02;;;;;;;;;3.00;2.00;;;;;19.71;43.91;101366.28;5057388;28;45280;-62
2021/10/01 11:13:34;;;;;;;;;4.33;3.00;;;;;19.71;44.08;101363.63;5057601;28;45327;-63
2021/10/01 11:16:08;;;;;;;;;3.00;2.00;;;;;19.71;44.09;101350.28;5057526;28;45398;-61
2021/10/01 11:18:37;;;;;;;;;5.00;4.00;;;;;19.71;43.85;101355.63;5057265;28;47180;-63
2021/10/01 11:21:32;;;;;;;;;2.00;2.00;;;;;19.72;44.00;101340.47;5057549;28;45404;-55
2021/10/01 11:24:12;;;;;;;;;4.00;2.00;;;;;19.72;43.96;101338.69;5057450;28;45463;-43
2021/10/01 11:26:43;;;;;;;;;2.00;2.00;;;;;19.71;44.20;101339.59;5057496;28;45364;-51
2021/10/01 11:29:21;;;;;;;;;3.00;2.00;;;;;19.70;44.31;101335.16;5057067;28;46404;-52
2021/10/01 11:31:46;;;;;;;;;2.33;2.33;;;;;19.71;44.21;101333.38;5056944;28;45456;-62
2021/10/01 11:34:11;;;;;;;;;4.67;2.67;;;;;19.71;44.15;101318.28;5057109;28;45224;-46
2021/10/01 11:36:39;;;;;;;;;2.67;2.67;;;;;19.71;44.30;101331.59;5057513;28;45326;-46
2021/10/01 11:39:04;;;;;;;;;3.33;2.00;;;;;19.69;44.05;101317.41;5055707;28;46414;-46
2021/10/01 11:41:31;;;;;;;;;4.00;2.33;;;;;19.71;44.54;101320.03;5057058;28;45427;-64
2021/10/01 11:43:57;;;;;;;;;5.00;3.33;;;;;19.70;44.45;101327.16;5058966;28;45349;-52
2021/10/01 11:46:26;;;;;;;;;4.67;3.00;;;;;19.71;44.44;101320.03;5060641;28;45487;-49
2021/10/01 11:48:53;;;;;;;;;3.67;3.00;;;;;19.71;44.42;101326.28;5060504;28;47214;-46
2021/10/01 11:51:18;;;;;;;;;3.00;3.00;;;;;19.71;44.61;101312.94;5060632;28;45467;-52
2021/10/01 11:53:43;;;;;;;;;3.00;3.00;;;;;19.70;44.70;101319.16;5060565;28;45270;-63
2021/10/01 11:56:09;;;;;;;;;2.00;2.00;;;;;19.70;44.66;101321.81;5060507;28;45298;-55
2021/10/01 11:58:37;;;;;;;;;4.00;2.33;;;;;19.70;44.67;101311.16;5060298;28;46172;-59
2021/10/01 12:01:11;;;;;;;;;3.00;2.00;;;;;19.71;44.59;101302.28;5060510;28;45315;-56
2021/10/01 12:03:47;;;;;;;;;2.00;2.00;;;;;19.72;44.63;101304.03;5060496;28;45341;-57
2021/10/01 12:06:19;;;;;;;;;2.00;2.00;;;;;19.71;44.70;101304.94;5060568;28;45462;-50
2021/10/01 12:08:55;;;;;;;;;3.00;2.00;;;;;19.71;44.96;101298.72;5059823;28;46120;-46
2021/10/01 12:11:32;;;;;;;;;4.67;1.33;;;;;19.72;45.00;101300.47;5060032;28;45385;-65
2021/10/01 12:14:09;;;;;;;;;2.67;2.00;;;;;19.71;45.04;101285.38;5060556;28;45333;-43
2021/10/01 12:16:35;;;;;;;;;3.00;1.67;;;;;19.72;45.09;101290.69;5060361;28;45334;-47
2021/10/01 12:19:05;;;;;;;;;2.67;2.67;;;;;19.71;45.16;101291.59;5059787;28;45410;-45
2021/10/01 12:21:31;;;;;;;;;1.33;1.33;;;;;19.72;45.27;101287.13;5060036;28;45499;-52
2021/10/01 12:24:00;;;;;;;;;1.00;1.00;;;;;19.70;45.33;101289.81;5060387;28;45372;-48
2021/10/01 12:26:31;;;;;;;;;2.33;1.00;;;;;19.70;45.15;101295.16;5060314;28;45423;-55
2021/10/01 12:29:15;;;;;;;;;2.00;2.00;;;;;19.71;45.40;101288.94;5059791;28;47055;-49
2021/10/01 12:31:50;;;;;;;;;2.67;1.67;;;;;19.70;45.30;101279.16;5059539;28;45390;-62
2021/10/01 12:34:28;;;;;;;;;2.00;2.00;;;;;19.70;45.37;101276.47;5059956;28;45305;-47
2021/10/01 12:37:00;;;;;;;;;3.00;2.00;;;;;19.69;45.50;101266.72;5060013;28;45403;-54
2021/10/01 12:39:28;;;;;;;;;1.33;1.00;;;;;19.71;45.52;101269.38;5059616;28;47066;-59
2021/10/01 12:42:04;;;;;;;;;3.33;2.00;;;;;19.69;45.40;101256.06;5059661;28;45523;-54
2021/10/01 12:44:37;;;;;;;;;1.00;1.00;;;;;19.68;45.65;101251.63;5059902;28;45219;-57
2021/10/01 12:47:15;;;;;;;;;1.00;1.00;;;;;19.69;45.62;101253.41;5060012;28;45302;-52
2021/10/01 12:49:41;;;;;;;;;2.00;0.67;;;;;19.69;45.69;101250.72;5059429;28;46172;-56
2021/10/01 12:52:19;;;;;;;;;2.00;2.00;;;;;19.69;45.86;101250.72;5059712;28;45295;-56
2021/10/01 12:54:46;;;;;;;;;1.67;1.00;;;;;19.69;45.80;101255.16;5058726;28;45353;-43
2021/10/01 12:57:13;;;;;;;;;1.00;1.00;;;;;19.70;45.56;101236.47;5059679;28;45260;-54
2021/10/01 12:59:40;;;;;;;;;3.67;3.00;;;;;19.68;45.84;101240.94;5059167;28;46345;-53
2021/10/01 13:02:13;;;;;;;;;3.00;1.00;;;;;19.69;45.93;101240.06;5059565;28;45224;-55
2021/10/01 13:04:50;;;;;;;;;2.00;1.00;;;;;19.69;45.96;101232.06;5059339;28;45402;-55
2021/10/01 13:07:26;;;;;;;;;3.33;2.00;;;;;19.69;45.97;101218.72;5059570;28;45431;-49